»·PEaware :: N197JS CYZT-KAWO

N197JS :: CYZT-KAWO

FLIGHT INFORMATION

Flight Status: Arrived
Operator: Privately registered:
United States
More flights under this callsign
Pilot: Tanner C. (11250)
Aircraft: BOMBARDIER BD-100 CHALLENGER 300
(CL30)
More flights by this aircraft type
Origin: CYZT Port Hardy
Canada
Destination: KAWO Arlington Mun
United States
More flights between these airports :: More routes between these airports
Route: + YZT J502 YYJ PAE
File this flight plan on PilotEdge
Remarks:
Altitude:
(Current/Filed)
35,000ft
Speed:
(Current/Filed)
500kts
Departed: 19-May-18 12:33 PM
Arrived: 19-May-18 01:16 PM
Distance/Time
Traveled:
253nm/0:43
Distance/Time
To Go:
Arrived

Flight Plot

Page will automatically refresh every two minutes.

Flight plan parsing failed; only flown route is shown


Map Options




Map Legend


Flown Route
Filed Route
Departure Airport
Arrival Airport
Navaid (VOR, NDB)
Fix

Horizontal Profiles

Position Reports

Time Latitude Longitude Heading Altitude Ground
Speed
19-May-18 12:28 50.682787 -127.376744 91 73ft 0kts
19-May-18 12:29 50.682787 -127.376744 91 73ft 0kts
19-May-18 12:30 50.682787 -127.376744 91 73ft 0kts
19-May-18 12:31 50.682787 -127.376729 91 73ft 1kts
19-May-18 12:32 50.685706 -127.373478 39 57ft 19kts
19-May-18 12:33 50.671923 -127.345970 127 1086ft 214kts
19-May-18 12:34 50.631876 -127.259667 124 5779ft 261kts
19-May-18 12:35 50.584911 -127.156012 127 9882ft 347kts
19-May-18 12:36 50.526441 -127.030789 127 15621ft 377kts
19-May-18 12:37 50.462691 -126.896048 128 20037ft 403kts
19-May-18 12:38 50.394548 -126.753178 128 23435ft 426kts
19-May-18 12:39 50.322528 -126.603040 129 26300ft 442kts
19-May-18 12:40 50.247083 -126.446633 130 28677ft 446kts
19-May-18 12:41 50.173568 -126.295382 131 30486ft 463kts
19-May-18 12:42 50.095737 -126.136057 132 32610ft 463kts
19-May-18 12:43 50.017920 -125.977793 132 34684ft 467kts
19-May-18 12:44 49.940159 -125.820533 131 35044ft 469kts
19-May-18 12:45 49.862205 -125.663791 131 35052ft 472kts
19-May-18 12:46 49.782420 -125.504358 131 35051ft 475kts
19-May-18 12:47 49.702454 -125.345335 132 35058ft 478kts
19-May-18 12:48 49.624423 -125.191328 132 35049ft 469kts
19-May-18 12:49 49.543804 -125.033330 132 35048ft 474kts
19-May-18 12:50 49.462566 -124.875182 131 35048ft 477kts
19-May-18 12:51 49.380582 -124.716587 130 35006ft 482kts
19-May-18 12:52 49.297039 -124.555830 130 34995ft 486kts
19-May-18 12:53 49.213375 -124.395828 130 34945ft 475kts
19-May-18 12:54 49.134320 -124.245559 131 33553ft 468kts
19-May-18 12:55 49.053904 -124.093568 132 31376ft 471kts
19-May-18 12:56 48.972974 -123.941519 131 28510ft 467kts
19-May-18 12:57 48.892787 -123.791694 130 25514ft 451kts
19-May-18 12:58 48.821662 -123.659479 129 22754ft 430kts
19-May-18 12:59 48.748323 -123.523733 129 19765ft 407kts
19-May-18 13:00 48.674258 -123.404436 134 17551ft 379kts
19-May-18 13:01 48.608159 -123.291420 135 17499ft 379kts
19-May-18 13:02 48.536055 -123.182222 135 17501ft 387kts
19-May-18 13:03 48.459884 -123.068374 135 17573ft 390kts
19-May-18 13:04 48.383224 -122.954572 135 17335ft 396kts
19-May-18 13:05 48.305856 -122.840286 135 16266ft 383kts
19-May-18 13:06 48.233586 -122.734028 135 14376ft 353kts
19-May-18 13:07 48.168650 -122.638933 135 12543ft 331kts
19-May-18 13:08 48.105250 -122.546417 135 10633ft 309kts
19-May-18 13:09 48.045941 -122.460120 135 8657ft 285kts
19-May-18 13:10 47.998671 -122.378407 106 6138ft 258kts
19-May-18 13:11 47.985586 -122.280033 102 3828ft 261kts
19-May-18 13:12 47.985307 -122.174670 74 2020ft 244kts
19-May-18 13:13 48.039022 -122.152012 355 2065ft 203kts
19-May-18 13:14 48.090282 -122.154514 357 1227ft 179kts
19-May-18 13:15 48.133982 -122.155740 357 529ft 143kts
19-May-18 13:16 48.163909 -122.156443 357 138ft 25kts
19-May-18 13:17 48.163101 -122.154344 179 138ft 14kts
19-May-18 13:18 48.161170 -122.153406 88 137ft 0kts
19-May-18 13:19 48.161170 -122.153406 88 137ft 0kts
19-May-18 13:20 48.161170 -122.153406 88 137ft 0kts
19-May-18 13:21 48.161170 -122.153406 88 137ft 0kts
19-May-18 13:22 48.161170 -122.153406 88 137ft 0kts
19-May-18 13:23 48.161170 -122.153406 88 137ft 0kts
19-May-18 13:24 48.161170 -122.153406 88 137ft 0kts

Navigation Log

Ident Type
Flight plan parsing failed, navigation log unavailable